createdAt,value
2023-03-17T00:00:11.320Z,95220.00
2023-03-17T00:04:11.299Z,95218.00
2023-03-17T00:08:11.255Z,95210.00
2023-03-17T00:12:11.247Z,95208.00
2023-03-17T00:16:18.240Z,95202.00
2023-03-17T00:20:11.147Z,95196.00
2023-03-17T00:24:11.903Z,95198.00
2023-03-17T00:28:11.066Z,95200.00
2023-03-17T00:32:11.032Z,95196.00
2023-03-17T00:36:10.995Z,95191.00
2023-03-17T00:40:18.599Z,95185.00
2023-03-17T00:44:11.145Z,95183.00
2023-03-17T00:48:18.647Z,95169.00
2023-03-17T00:52:11.038Z,95169.00
2023-03-17T00:56:11.014Z,95169.00
2023-03-17T01:00:10.983Z,95161.00
2023-03-17T01:04:18.136Z,95167.00
2023-03-17T01:08:10.886Z,95159.00
2023-03-17T01:12:10.845Z,95155.00
2023-03-17T01:16:10.931Z,95175.00
2023-03-17T01:20:10.767Z,95165.00
2023-03-17T01:24:18.153Z,95165.00
2023-03-17T01:28:10.685Z,95171.00
2023-03-17T01:32:10.703Z,95167.00
2023-03-17T01:36:10.697Z,95163.00
2023-03-17T01:40:10.592Z,95169.00
2023-03-17T01:44:19.184Z,95155.00
2023-03-17T01:48:10.559Z,95161.00
2023-03-17T01:52:10.505Z,95163.00
2023-03-17T01:56:10.498Z,95155.00
2023-03-17T02:00:10.418Z,95153.00
2023-03-17T02:04:10.491Z,95136.00
2023-03-17T02:08:10.389Z,95134.00
2023-03-17T02:12:10.357Z,95126.00
2023-03-17T02:16:10.292Z,95126.00
2023-03-17T02:20:10.227Z,95118.00
2023-03-17T02:24:10.240Z,95128.00
2023-03-17T02:28:10.170Z,95122.00
2023-03-17T02:32:10.143Z,95138.00
2023-03-17T02:36:10.208Z,95124.00
2023-03-17T02:40:10.190Z,95128.00
2023-03-17T02:44:10.385Z,95116.00
2023-03-17T02:48:10.568Z,95128.00
2023-03-17T02:52:10.689Z,95100.00
2023-03-17T02:56:10.866Z,95122.00
2023-03-17T03:00:11.018Z,95116.00
2023-03-17T03:04:11.227Z,95114.00
2023-03-17T03:08:11.424Z,95106.00
2023-03-17T03:12:11.537Z,95100.00
2023-03-17T03:16:11.720Z,95120.00
2023-03-17T03:20:11.905Z,95104.00
2023-03-17T03:24:12.028Z,95114.00
2023-03-17T03:28:12.182Z,95116.00
2023-03-17T03:32:12.368Z,95122.00
2023-03-17T03:36:12.584Z,95120.00
2023-03-17T03:40:12.706Z,95106.00
2023-03-17T03:44:12.829Z,95114.00
2023-03-17T03:48:13.026Z,95132.00
2023-03-17T03:52:13.177Z,95124.00
2023-03-17T03:56:13.376Z,95110.00
2023-03-17T04:00:13.554Z,95120.00
2023-03-17T04:04:13.711Z,95108.00
2023-03-17T04:08:13.914Z,95100.00
2023-03-17T04:12:14.209Z,95120.00
2023-03-17T04:16:14.239Z,95112.00
2023-03-17T04:20:14.409Z,95102.00
2023-03-17T04:24:14.596Z,95104.00
2023-03-17T04:28:15.245Z,95106.00
2023-03-17T04:32:15.234Z,95100.00
2023-03-17T04:36:15.189Z,95089.00
2023-03-17T04:40:15.371Z,95098.00
2023-03-17T04:44:15.553Z,95085.00
2023-03-17T04:48:15.723Z,95089.00
2023-03-17T04:52:15.959Z,95079.00
2023-03-17T04:56:16.147Z,95085.00
2023-03-17T05:00:16.375Z,95091.00
2023-03-17T05:04:28.903Z,95083.00
2023-03-17T05:08:17.512Z,95083.00
2023-03-17T05:12:16.507Z,95083.00
2023-03-17T05:16:16.523Z,95089.00
2023-03-17T05:20:16.664Z,95095.00
2023-03-17T05:24:16.851Z,95091.00
2023-03-17T05:28:17.016Z,95091.00
2023-03-17T05:32:17.247Z,95089.00
2023-03-17T05:36:17.364Z,95085.00
2023-03-17T05:40:17.541Z,95093.00
2023-03-17T05:44:17.749Z,95091.00
2023-03-17T05:48:17.952Z,95089.00
2023-03-17T05:52:18.096Z,95091.00
2023-03-17T05:56:18.320Z,95091.00
2023-03-17T06:00:18.552Z,95079.00
2023-03-17T06:04:18.719Z,95083.00
2023-03-17T06:08:18.899Z,95079.00
2023-03-17T06:12:19.123Z,95091.00
2023-03-17T06:16:19.205Z,95095.00
2023-03-17T06:20:19.238Z,95091.00
2023-03-17T06:24:19.343Z,95085.00
2023-03-17T06:28:19.413Z,95093.00
2023-03-17T06:32:21.049Z,95085.00
2023-03-17T06:36:19.642Z,95087.00
2023-03-17T06:40:19.812Z,95085.00
2023-03-17T06:44:19.916Z,95081.00
2023-03-17T06:48:19.996Z,95081.00
2023-03-17T06:52:20.027Z,95077.00
2023-03-17T06:56:29.530Z,95077.00
2023-03-17T07:00:21.233Z,95077.00
2023-03-17T07:04:20.056Z,95071.00
2023-03-17T07:08:20.066Z,95063.00
2023-03-17T07:12:20.192Z,95069.00
2023-03-17T07:16:20.244Z,95061.00
2023-03-17T07:20:20.308Z,95065.00
2023-03-17T07:24:20.373Z,95063.00
2023-03-17T07:28:20.492Z,95051.00
2023-03-17T07:32:20.548Z,95067.00
2023-03-17T07:36:20.589Z,95067.00
2023-03-17T07:40:20.648Z,95065.00
2023-03-17T07:44:20.706Z,95067.00
2023-03-17T07:48:20.842Z,95059.00
2023-03-17T07:52:20.887Z,95055.00
2023-03-17T07:56:20.938Z,95046.00
2023-03-17T08:00:21.127Z,95049.00
2023-03-17T08:04:21.167Z,95044.00
2023-03-17T08:08:21.337Z,95034.00
2023-03-17T08:12:21.269Z,95042.00
2023-03-17T08:16:21.310Z,95034.00
2023-03-17T08:20:21.221Z,95024.00
2023-03-17T08:24:21.308Z,95024.00
2023-03-17T08:28:21.457Z,95014.00
2023-03-17T08:32:21.473Z,95004.00
2023-03-17T08:36:21.547Z,95012.00
2023-03-17T08:40:21.598Z,95002.00
2023-03-17T08:44:21.622Z,94983.00
2023-03-17T08:48:21.783Z,94993.00
2023-03-17T08:52:21.789Z,94981.00
2023-03-17T08:56:21.946Z,94977.00
2023-03-17T09:00:22.066Z,94967.00
2023-03-17T09:04:21.990Z,94969.00
2023-03-17T09:10:49.598Z,94957.00
2023-03-17T09:14:49.533Z,94944.00
2023-03-17T09:18:49.513Z,94934.00
2023-03-17T09:22:49.650Z,94928.00
2023-03-17T09:26:49.566Z,94912.00
2023-03-17T09:30:49.454Z,94914.00
2023-03-17T09:34:51.520Z,94902.00
2023-03-17T09:38:49.344Z,94906.00
2023-03-17T09:42:49.370Z,94912.00
2023-03-17T09:46:49.595Z,94908.00
2023-03-17T09:50:49.673Z,94904.00
2023-03-17T09:54:49.812Z,94906.00
2023-03-17T09:58:51.346Z,94897.00
2023-03-17T10:02:49.965Z,94895.00
2023-03-17T10:06:50.038Z,94877.00
2023-03-17T10:10:50.082Z,94871.00
2023-03-17T10:14:51.357Z,94859.00
2023-03-17T10:18:50.317Z,94863.00
2023-03-17T10:22:50.453Z,94849.00
2023-03-17T10:26:50.527Z,94842.00
2023-03-17T10:30:50.659Z,94840.00
2023-03-17T10:34:50.771Z,94828.00
2023-03-17T10:38:50.982Z,94824.00
2023-03-17T10:42:51.145Z,94816.00
2023-03-17T10:46:51.624Z,94812.00
2023-03-17T10:50:52.884Z,94802.00
2023-03-17T10:54:51.558Z,94797.00
2023-03-17T10:58:51.745Z,94777.00
2023-03-17T11:02:51.757Z,94769.00
2023-03-17T11:06:51.822Z,94781.00
2023-03-17T11:10:52.334Z,94773.00
2023-03-17T11:14:51.956Z,94761.00
2023-03-17T11:18:52.010Z,94767.00
2023-03-17T11:22:52.097Z,94738.00
2023-03-17T11:26:52.133Z,94736.00
2023-03-17T11:30:52.217Z,94732.00
2023-03-17T11:34:52.292Z,94728.00
2023-03-17T11:38:52.312Z,94708.00
2023-03-17T11:42:52.376Z,94714.00
2023-03-17T11:46:52.546Z,94700.00
2023-03-17T11:50:52.563Z,94689.00
2023-03-17T11:54:54.374Z,94689.00
2023-03-17T11:58:52.565Z,94673.00
2023-03-17T12:02:52.528Z,94689.00
2023-03-17T12:06:52.488Z,94679.00
2023-03-17T12:10:52.437Z,94667.00
2023-03-17T12:14:52.394Z,94648.00
2023-03-17T12:18:52.386Z,94651.00
2023-03-17T12:22:52.310Z,94651.00
2023-03-17T12:26:52.383Z,94628.00
2023-03-17T12:30:52.312Z,94638.00
2023-03-17T12:34:52.207Z,94638.00
2023-03-17T12:38:52.216Z,94622.00
2023-03-17T12:42:52.133Z,94620.00
2023-03-17T12:46:52.105Z,94600.00
2023-03-17T12:50:52.063Z,94610.00
2023-03-17T12:54:52.017Z,94591.00
2023-03-17T12:58:51.987Z,94600.00
2023-03-17T13:02:52.001Z,94587.00
2023-03-17T13:06:51.920Z,94567.00
2023-03-17T13:10:51.922Z,94569.00
2023-03-17T13:14:51.856Z,94575.00
2023-03-17T13:18:51.818Z,94571.00
2023-03-17T13:22:51.800Z,94559.00
2023-03-17T13:26:54.327Z,94557.00
2023-03-17T13:30:51.680Z,94550.00
2023-03-17T13:34:51.675Z,94553.00
2023-03-17T13:39:05.105Z,94540.00
2023-03-17T13:42:52.599Z,94544.00
2023-03-17T13:46:51.616Z,94550.00
2023-03-17T13:50:51.535Z,94528.00
2023-03-17T13:54:51.526Z,94532.00
2023-03-17T13:58:51.434Z,94516.00
2023-03-17T14:02:58.910Z,94532.00
2023-03-17T14:06:51.493Z,94512.00
2023-03-17T14:10:51.458Z,94526.00
2023-03-17T14:14:51.415Z,94520.00
2023-03-17T14:18:51.369Z,94524.00
2023-03-17T14:22:58.453Z,94516.00
2023-03-17T14:26:51.315Z,94504.00
2023-03-17T14:30:51.300Z,94510.00
2023-03-17T14:34:51.216Z,94506.00
2023-03-17T14:38:51.194Z,94506.00
2023-03-17T14:42:51.171Z,94499.00
2023-03-17T14:46:51.104Z,94491.00
2023-03-17T14:50:51.101Z,94493.00
2023-03-17T14:54:51.025Z,94481.00
2023-03-17T14:58:51.014Z,94495.00
2023-03-17T15:02:51.101Z,94487.00
2023-03-17T15:06:51.194Z,94493.00
2023-03-17T15:10:51.241Z,94483.00
2023-03-17T15:14:51.315Z,94485.00
2023-03-17T15:18:51.422Z,94479.00
2023-03-17T15:22:51.527Z,94481.00
2023-03-17T15:26:51.650Z,94479.00
2023-03-17T15:30:52.000Z,94471.00
2023-03-17T15:34:51.821Z,94477.00
2023-03-17T15:38:52.006Z,94475.00
2023-03-17T15:42:52.011Z,94471.00
2023-03-17T15:46:52.103Z,94475.00
2023-03-17T15:50:52.262Z,94479.00
2023-03-17T15:54:52.322Z,94473.00
2023-03-17T15:58:52.615Z,94477.00
2023-03-17T16:02:52.541Z,94477.00
2023-03-17T16:06:52.676Z,94473.00
2023-03-17T16:10:52.768Z,94475.00
2023-03-17T16:14:52.867Z,94479.00
2023-03-17T16:18:52.995Z,94487.00
2023-03-17T16:22:53.043Z,94475.00
2023-03-17T16:26:53.146Z,94477.00
2023-03-17T16:30:53.323Z,94491.00
2023-03-17T16:34:53.442Z,94483.00
2023-03-17T16:38:53.519Z,94497.00
2023-03-17T16:42:53.657Z,94508.00
2023-03-17T16:46:53.784Z,94512.00
2023-03-17T16:50:53.911Z,94516.00
2023-03-17T16:54:54.044Z,94524.00
2023-03-17T16:58:54.108Z,94528.00
2023-03-17T17:02:54.521Z,94540.00
2023-03-17T17:06:54.315Z,94548.00
2023-03-17T17:10:54.399Z,94536.00
2023-03-17T17:14:54.510Z,94548.00
2023-03-17T17:18:54.632Z,94540.00
2023-03-17T17:22:54.763Z,94544.00
2023-03-17T17:26:54.845Z,94550.00
2023-03-17T17:30:54.965Z,94553.00
2023-03-17T17:34:55.102Z,94550.00
2023-03-17T17:38:55.219Z,94551.00
2023-03-17T17:43:02.512Z,94546.00
2023-03-17T17:46:55.369Z,94551.00
2023-03-17T17:50:55.248Z,94563.00
2023-03-17T17:54:55.227Z,94550.00
2023-03-17T17:58:55.201Z,94557.00
2023-03-17T18:02:55.119Z,94557.00
2023-03-17T18:06:55.087Z,94557.00
2023-03-17T18:10:55.074Z,94550.00
2023-03-17T18:15:02.571Z,94557.00
2023-03-17T18:18:55.026Z,94553.00
2023-03-17T18:22:55.005Z,94550.00
2023-03-17T18:26:54.981Z,94559.00
2023-03-17T18:30:54.948Z,94567.00
2023-03-17T18:35:02.041Z,94583.00
2023-03-17T18:38:54.924Z,94602.00
2023-03-17T18:42:54.833Z,94593.00
2023-03-17T18:46:54.801Z,94593.00
2023-03-17T18:50:54.753Z,94608.00
2023-03-17T18:54:54.780Z,94593.00
2023-03-17T18:58:54.693Z,94604.00
2023-03-17T19:02:54.725Z,94602.00
2023-03-17T19:06:54.667Z,94587.00
2023-03-17T19:10:54.733Z,94595.00
2023-03-17T19:14:54.886Z,94604.00
2023-03-17T19:18:54.977Z,94608.00
2023-03-17T19:22:55.058Z,94604.00
2023-03-17T19:26:55.157Z,94618.00
2023-03-17T19:30:55.256Z,94620.00
2023-03-17T19:34:55.388Z,94618.00
2023-03-17T19:38:55.447Z,94606.00
2023-03-17T19:42:55.583Z,94606.00
2023-03-17T19:46:55.684Z,94604.00
2023-03-17T19:50:55.768Z,94606.00
2023-03-17T19:54:55.898Z,94620.00
2023-03-17T19:58:55.979Z,94628.00
2023-03-17T20:02:56.117Z,94640.00
2023-03-17T20:06:56.232Z,94616.00
2023-03-17T20:10:56.352Z,94618.00
2023-03-17T20:14:56.442Z,94624.00
2023-03-17T20:18:56.580Z,94622.00
2023-03-17T20:22:56.642Z,94626.00
2023-03-17T20:26:56.782Z,94626.00
2023-03-17T20:30:56.905Z,94626.00
2023-03-17T20:34:56.955Z,94650.00
2023-03-17T20:38:57.076Z,94618.00
2023-03-17T20:42:57.165Z,94628.00
2023-03-17T20:46:57.257Z,94642.00
2023-03-17T20:50:57.350Z,94638.00
2023-03-17T20:54:57.443Z,94638.00
2023-03-17T20:58:57.577Z,94628.00
2023-03-17T21:02:57.706Z,94653.00
2023-03-17T21:06:57.837Z,94638.00
2023-03-17T21:10:57.916Z,94655.00
2023-03-17T21:14:58.034Z,94648.00
2023-03-17T21:18:58.182Z,94665.00
2023-03-17T21:22:58.305Z,94655.00
2023-03-17T21:26:58.374Z,94663.00
2023-03-17T21:30:58.504Z,94669.00
2023-03-17T21:34:58.644Z,94673.00
2023-03-17T21:38:58.779Z,94687.00
2023-03-17T21:42:59.129Z,94685.00
2023-03-17T21:46:59.028Z,94685.00
2023-03-17T21:50:59.174Z,94691.00
2023-03-17T21:54:59.309Z,94691.00
2023-03-17T21:58:59.460Z,94700.00
2023-03-17T22:03:07.176Z,94704.00
2023-03-17T22:06:59.551Z,94708.00
2023-03-17T22:10:59.524Z,94704.00
2023-03-17T22:14:59.458Z,94716.00
2023-03-17T22:18:59.477Z,94720.00
2023-03-17T22:22:59.427Z,94720.00
2023-03-17T22:26:59.549Z,94720.00
2023-03-17T22:30:59.680Z,94726.00
2023-03-17T22:34:59.791Z,94726.00
2023-03-17T22:38:59.920Z,94730.00
2023-03-17T22:43:00.037Z,94724.00
2023-03-17T22:47:00.203Z,94720.00
2023-03-17T22:51:00.334Z,94728.00
2023-03-17T22:55:00.476Z,94726.00
2023-03-17T22:59:00.666Z,94732.00
2023-03-17T23:03:00.761Z,94742.00
2023-03-17T23:07:00.936Z,94749.00
2023-03-17T23:11:01.108Z,94755.00
2023-03-17T23:15:01.212Z,94759.00
2023-03-17T23:19:01.288Z,94757.00
2023-03-17T23:23:01.460Z,94757.00
2023-03-17T23:27:01.609Z,94763.00
2023-03-17T23:31:01.742Z,94769.00
2023-03-17T23:35:01.894Z,94777.00
2023-03-17T23:39:02.004Z,94781.00
2023-03-17T23:43:02.141Z,94777.00
2023-03-17T23:47:09.288Z,94777.00
2023-03-17T23:51:02.230Z,94783.00
2023-03-17T23:55:02.201Z,94785.00
2023-03-17T23:59:02.208Z,94791.00
